Time;durP1;ratioP1;P1;durP2;ratioP2;P2;SDS_P1;SDS_P2;PMS_P1;PMS_P2;Temp;Humidity;BMP_temperature;BMP_pressure;BME280_temperature;BME280_humidity;BME280_pressure;Samples;Min_cycle;Max_cycle;Signal;HPM_P1;HPM_P2
2022/06/03 00:02:48;;;;;;;14.32;4.07;;;;;;;;;;4889052;29;20187;-71
2022/06/03 00:05:39;;;;;;;17.80;4.60;;;;;;;;;;4861599;29;20040;-71
2022/06/03 00:08:23;;;;;;;12.73;3.97;;;;;;;;;;4879318;29;20131;-71
2022/06/03 00:11:02;;;;;;;14.65;4.50;;;;;;;;;;4881075;29;20467;-70
2022/06/03 00:13:48;;;;;;;12.45;4.00;;;;;;;;;;4873889;29;20159;-70
2022/06/03 00:16:26;;;;;;;16.20;4.57;;;;;;;;;;4879651;29;20613;-71
2022/06/03 00:19:25;;;;;;;14.23;4.25;;;;;;;;;;4878049;29;20433;-70
2022/06/03 00:22:30;;;;;;;15.43;4.45;;;;;;;;;;4822067;29;20045;-70
2022/06/03 00:25:11;;;;;;;13.38;3.95;;;;;;;;;;4784798;29;20054;-72
2022/06/03 00:27:56;;;;;;;15.45;4.65;;;;;;;;;;4796764;29;20050;-71
2022/06/03 00:30:41;;;;;;;16.48;4.28;;;;;;;;;;4785454;29;20083;-71
2022/06/03 00:33:19;;;;;;;13.55;3.95;;;;;;;;;;4813827;29;20256;-69
2022/06/03 00:35:59;;;;;;;15.35;4.00;;;;;;;;;;4833677;29;20045;-69
2022/06/03 00:38:44;;;;;;;14.60;4.00;;;;;;;;;;4820987;29;20048;-70
2022/06/03 00:41:25;;;;;;;11.48;3.67;;;;;;;;;;4770458;29;20410;-70
2022/06/03 00:44:12;;;;;;;15.50;3.92;;;;;;;;;;4815939;29;20198;-70
2022/06/03 00:46:52;;;;;;;16.73;3.65;;;;;;;;;;4829914;29;20034;-70
2022/06/03 00:49:39;;;;;;;13.68;3.72;;;;;;;;;;4831618;29;20114;-70
2022/06/03 00:52:25;;;;;;;15.73;4.10;;;;;;;;;;4817579;29;21023;-70
2022/06/03 00:55:09;;;;;;;18.15;3.83;;;;;;;;;;4839705;29;20061;-70
2022/06/03 00:57:42;;;;;;;14.77;3.95;;;;;;;;;;4936431;28;20045;-70
2022/06/03 01:00:16;;;;;;;17.50;4.07;;;;;;;;;;4989699;28;20037;-70
2022/06/03 01:02:45;;;;;;;16.70;3.83;;;;;;;;;;4967658;28;20037;-73
2022/06/03 01:05:15;;;;;;;19.20;4.60;;;;;;;;;;4981531;28;20111;-72
2022/06/03 01:07:53;;;;;;;15.70;4.03;;;;;;;;;;4965218;28;20034;-72
2022/06/03 01:10:19;;;;;;;11.70;3.33;;;;;;;;;;4970308;28;20057;-73
2022/06/03 01:13:04;;;;;;;11.60;3.50;;;;;;;;;;4964180;28;20278;-71
2022/06/03 01:15:39;;;;;;;14.60;3.75;;;;;;;;;;4961580;28;20502;-72
2022/06/03 01:18:19;;;;;;;15.48;3.80;;;;;;;;;;4908926;28;20128;-69
2022/06/03 01:20:54;;;;;;;15.98;4.00;;;;;;;;;;4889010;28;20327;-70
2022/06/03 01:23:32;;;;;;;12.25;3.85;;;;;;;;;;4908330;28;20022;-70
2022/06/03 01:26:05;;;;;;;13.27;3.47;;;;;;;;;;4912101;28;20225;-73
2022/06/03 01:28:50;;;;;;;15.15;3.55;;;;;;;;;;4907910;28;20014;-69
2022/06/03 01:31:37;;;;;;;14.18;4.00;;;;;;;;;;4897934;28;20045;-70
2022/06/03 01:34:14;;;;;;;14.70;3.85;;;;;;;;;;4908650;28;20387;-70
2022/06/03 01:36:40;;;;;;;11.68;3.50;;;;;;;;;;4890388;28;20053;-70
2022/06/03 01:39:21;;;;;;;15.60;3.80;;;;;;;;;;4913990;28;20105;-70
2022/06/03 01:41:53;;;;;;;13.52;4.07;;;;;;;;;;4911467;28;20034;-70
2022/06/03 01:44:38;;;;;;;13.18;3.97;;;;;;;;;;4915528;28;20826;-69
2022/06/03 01:47:04;;;;;;;16.73;4.03;;;;;;;;;;4913661;28;20038;-70
2022/06/03 01:49:43;;;;;;;14.68;3.42;;;;;;;;;;4908392;28;20909;-72
2022/06/03 01:52:34;;;;;;;13.00;3.70;;;;;;;;;;4896848;28;20034;-70
2022/06/03 01:55:20;;;;;;;13.02;4.22;;;;;;;;;;4963575;28;20054;-70
2022/06/03 01:57:59;;;;;;;11.65;3.40;;;;;;;;;;4964879;28;20061;-70
2022/06/03 02:00:36;;;;;;;15.40;4.13;;;;;;;;;;4966531;28;20132;-70
2022/06/03 02:03:11;;;;;;;11.82;3.85;;;;;;;;;;4974146;28;20030;-71
2022/06/03 02:05:58;;;;;;;12.70;3.95;;;;;;;;;;4955734;28;20038;-71
2022/06/03 02:08:46;;;;;;;15.88;4.15;;;;;;;;;;4953276;28;20034;-70
2022/06/03 02:11:32;;;;;;;17.38;4.47;;;;;;;;;;4971329;28;20041;-70
2022/06/03 02:14:14;;;;;;;15.25;4.43;;;;;;;;;;4970409;28;20133;-70
2022/06/03 02:16:43;;;;;;;14.90;3.90;;;;;;;;;;4951136;28;20034;-70
2022/06/03 02:19:29;;;;;;;14.05;4.10;;;;;;;;;;4954405;28;20084;-70
2022/06/03 02:22:14;;;;;;;15.98;3.78;;;;;;;;;;4975858;28;20030;-70
2022/06/03 02:24:46;;;;;;;14.10;3.88;;;;;;;;;;4971008;28;20476;-70
2022/06/03 02:27:23;;;;;;;15.40;4.22;;;;;;;;;;4973574;28;20034;-69
2022/06/03 02:30:26;;;;;;;16.15;4.40;;;;;;;;;;4968726;28;20449;-70
2022/06/03 02:33:13;;;;;;;12.23;3.50;;;;;;;;;;4947769;28;20046;-70
2022/06/03 02:35:40;;;;;;;;;;;;;;;;;;4954647;28;20037;-70
2022/06/03 02:38:26;;;;;;;13.95;3.72;;;;;;;;;;4967053;28;20065;-70
2022/06/03 02:41:07;;;;;;;13.70;4.10;;;;;;;;;;4970673;28;20038;-70
2022/06/03 02:43:36;;;;;;;14.27;4.22;;;;;;;;;;4967756;28;20038;-70
2022/06/03 02:46:32;;;;;;;10.70;4.00;;;;;;;;;;4969575;28;20441;-70
2022/06/03 02:49:17;;;;;;;12.68;3.78;;;;;;;;;;4969490;28;20500;-70
2022/06/03 02:51:58;;;;;;;12.05;3.75;;;;;;;;;;4966821;28;20112;-70
2022/06/03 02:54:59;;;;;;;14.77;4.22;;;;;;;;;;4966847;28;20387;-70
2022/06/03 02:57:48;;;;;;;15.35;4.20;;;;;;;;;;4964213;28;20034;-70
2022/06/03 03:00:27;;;;;;;15.68;4.57;;;;;;;;;;4900692;29;20937;-71
2022/06/03 03:03:05;;;;;;;15.07;4.38;;;;;;;;;;4929418;28;20054;-70
2022/06/03 03:05:38;;;;;;;13.25;4.30;;;;;;;;;;4926479;28;20182;-69
2022/06/03 03:08:17;;;;;;;14.07;4.50;;;;;;;;;;4931507;28;20262;-69
2022/06/03 03:10:52;;;;;;;14.32;4.10;;;;;;;;;;4926025;28;20501;-71
2022/06/03 03:13:19;;;;;;;13.65;4.10;;;;;;;;;;4929045;28;20050;-69
2022/06/03 03:15:54;;;;;;;13.73;4.72;;;;;;;;;;4926894;28;20214;-71
2022/06/03 03:18:26;;;;;;;14.77;5.15;;;;;;;;;;4928778;28;20047;-69
2022/06/03 03:21:01;;;;;;;12.50;4.43;;;;;;;;;;4929775;28;20425;-69
2022/06/03 03:23:55;;;;;;;12.00;4.53;;;;;;;;;;4927013;28;20035;-69
2022/06/03 03:26:24;;;;;;;15.70;4.35;;;;;;;;;;4926613;28;20039;-70
2022/06/03 03:29:23;;;;;;;16.20;4.68;;;;;;;;;;4929810;28;20035;-70
2022/06/03 03:32:15;;;;;;;17.50;5.35;;;;;;;;;;4883068;29;20139;-69
2022/06/03 03:35:07;;;;;;;21.02;5.13;;;;;;;;;;4869000;29;20490;-70
2022/06/03 03:37:48;;;;;;;14.18;4.72;;;;;;;;;;4873676;29;20442;-69
2022/06/03 03:40:24;;;;;;;16.35;4.45;;;;;;;;;;4890883;29;20073;-69
2022/06/03 03:43:08;;;;;;;15.60;5.13;;;;;;;;;;4891771;29;20098;-71
2022/06/03 03:45:34;;;;;;;15.30;4.80;;;;;;;;;;4874146;29;20036;-71
2022/06/03 03:48:19;;;;;;;13.00;4.63;;;;;;;;;;4891566;29;20040;-71
2022/06/03 03:50:46;;;;;;;12.02;4.50;;;;;;;;;;4889624;29;20604;-69
2022/06/03 03:53:17;;;;;;;22.45;5.55;;;;;;;;;;4891560;29;20024;-71
2022/06/03 03:56:02;;;;;;;18.08;5.30;;;;;;;;;;4886984;29;20711;-69
2022/06/03 03:58:48;;;;;;;14.68;4.78;;;;;;;;;;4887585;29;20502;-70
2022/06/03 04:01:31;;;;;;;16.85;5.68;;;;;;;;;;4891614;29;20235;-71
2022/06/03 04:04:00;;;;;;;14.93;4.30;;;;;;;;;;4891384;29;20036;-69
2022/06/03 04:06:32;;;;;;;17.83;5.05;;;;;;;;;;4888163;28;20032;-71
2022/06/03 04:09:04;;;;;;;18.73;5.38;;;;;;;;;;4909386;29;20032;-71
2022/06/03 04:11:50;;;;;;;15.70;5.40;;;;;;;;;;4907387;29;20348;-71
2022/06/03 04:14:36;;;;;;;12.48;4.63;;;;;;;;;;4929342;28;20049;-69
2022/06/03 04:17:21;;;;;;;16.90;5.05;;;;;;;;;;4949860;28;20062;-70
2022/06/03 04:20:05;;;;;;;15.52;4.97;;;;;;;;;;4961911;28;20030;-71
2022/06/03 04:22:49;;;;;;;14.48;4.82;;;;;;;;;;4960936;28;20042;-73
2022/06/03 04:25:22;;;;;;;13.23;4.25;;;;;;;;;;4949887;28;20030;-71
2022/06/03 04:28:07;;;;;;;12.45;4.93;;;;;;;;;;4952526;28;20121;-70
2022/06/03 04:30:51;;;;;;;12.18;4.20;;;;;;;;;;4965695;28;20078;-70
2022/06/03 04:33:20;;;;;;;14.13;4.97;;;;;;;;;;4933617;28;20133;-70
2022/06/03 04:36:05;;;;;;;13.40;4.57;;;;;;;;;;4930171;28;20039;-70
2022/06/03 04:38:59;;;;;;;17.85;4.90;;;;;;;;;;4945214;28;20458;-70
2022/06/03 04:41:55;;;;;;;18.67;5.22;;;;;;;;;;4945565;28;20836;-70
2022/06/03 04:44:42;;;;;;;15.77;4.72;;;;;;;;;;4948033;28;20026;-70
2022/06/03 04:47:27;;;;;;;17.63;4.90;;;;;;;;;;4948946;28;20416;-70
2022/06/03 04:50:32;;;;;;;17.42;5.22;;;;;;;;;;4928897;28;20450;-70
2022/06/03 04:53:17;;;;;;;19.45;5.80;;;;;;;;;;4909068;29;20070;-70
2022/06/03 04:55:55;;;;;;;20.23;5.22;;;;;;;;;;4909109;29;20040;-75
2022/06/03 04:58:40;;;;;;;15.43;5.22;;;;;;;;;;4911932;29;20445;-75
2022/06/03 05:01:12;;;;;;;18.45;5.57;;;;;;;;;;4908478;29;20115;-75
2022/06/03 05:03:50;;;;;;;18.92;5.55;;;;;;;;;;4906807;29;20078;-75
2022/06/03 05:06:35;;;;;;;18.02;5.43;;;;;;;;;;4923406;28;20063;-76
2022/06/03 05:09:16;;;;;;;15.15;4.80;;;;;;;;;;4914025;29;20042;-75
2022/06/03 05:11:42;;;;;;;17.25;5.50;;;;;;;;;;4912625;29;20058;-75
2022/06/03 05:14:18;;;;;;;22.65;5.95;;;;;;;;;;4895939;29;20071;-77
2022/06/03 05:17:03;;;;;;;20.48;5.18;;;;;;;;;;4921166;28;21597;-77
2022/06/03 05:19:32;;;;;;;17.55;5.88;;;;;;;;;;4901090;29;20181;-75
2022/06/03 05:22:16;;;;;;;21.05;6.50;;;;;;;;;;4909044;29;20040;-75
2022/06/03 05:24:49;;;;;;;17.13;5.63;;;;;;;;;;4934904;28;20616;-74
2022/06/03 05:27:21;;;;;;;18.63;5.82;;;;;;;;;;4946960;28;20073;-74
2022/06/03 05:29:53;;;;;;;18.33;6.03;;;;;;;;;;4945998;28;20039;-75
2022/06/03 05:32:26;;;;;;;22.35;5.63;;;;;;;;;;4928422;28;20401;-74
2022/06/03 05:35:07;;;;;;;17.10;5.22;;;;;;;;;;4931155;28;20724;-75
2022/06/03 05:37:48;;;;;;;19.33;6.32;;;;;;;;;;4943277;28;20560;-75
2022/06/03 05:40:20;;;;;;;51.78;7.82;;;;;;;;;;4947863;28;20614;-74
2022/06/03 05:43:12;;;;;;;26.90;6.72;;;;;;;;;;4946508;28;20031;-75
2022/06/03 05:45:57;;;;;;;23.20;7.05;;;;;;;;;;4942995;28;20054;-74
2022/06/03 05:48:49;;;;;;;22.77;6.65;;;;;;;;;;4930425;28;20035;-74
2022/06/03 05:51:34;;;;;;;28.50;6.63;;;;;;;;;;4946737;28;20563;-75
2022/06/03 05:54:00;;;;;;;18.48;5.95;;;;;;;;;;4947976;28;20045;-74
2022/06/03 05:56:45;;;;;;;18.40;6.40;;;;;;;;;;4927490;28;20034;-75
2022/06/03 05:59:30;;;;;;;26.42;6.22;;;;;;;;;;4929142;28;20395;-76
2022/06/03 06:01:59;;;;;;;19.92;5.53;;;;;;;;;;4944612;28;20053;-76
2022/06/03 06:04:34;;;;;;;18.17;5.80;;;;;;;;;;4938755;28;20050;-76
2022/06/03 06:07:34;;;;;;;16.27;4.97;;;;;;;;;;4932154;28;20031;-75
2022/06/03 06:10:19;;;;;;;14.07;5.28;;;;;;;;;;4906567;29;20497;-76
2022/06/03 06:13:04;;;;;;;15.25;5.20;;;;;;;;;;4904633;29;20765;-76
2022/06/03 06:15:58;;;;;;;25.08;5.80;;;;;;;;;;4920584;28;20032;-76
2022/06/03 06:18:43;;;;;;;18.17;5.18;;;;;;;;;;4904764;29;20055;-75
2022/06/03 06:21:14;;;;;;;18.45;6.00;;;;;;;;;;4928561;28;20248;-76
2022/06/03 06:23:40;;;;;;;14.40;4.72;;;;;;;;;;4908401;29;20032;-76
2022/06/03 06:26:12;;;;;;;16.98;4.95;;;;;;;;;;4908539;29;20262;-76
2022/06/03 06:29:03;;;;;;;15.63;5.28;;;;;;;;;;4904806;29;20516;-76
2022/06/03 06:31:45;;;;;;;15.82;4.55;;;;;;;;;;4888357;29;20060;-75
2022/06/03 06:34:30;;;;;;;15.65;5.22;;;;;;;;;;4907652;29;20059;-75
2022/06/03 06:37:15;;;;;;;14.45;4.75;;;;;;;;;;4907111;29;20032;-76
2022/06/03 06:40:01;;;;;;;14.25;4.55;;;;;;;;;;4904091;29;20095;-76
2022/06/03 06:42:33;;;;;;;16.83;4.77;;;;;;;;;;4888480;29;20325;-75
2022/06/03 06:45:20;;;;;;;16.95;4.95;;;;;;;;;;4919857;28;20043;-76
2022/06/03 06:48:05;;;;;;;17.00;4.50;;;;;;;;;;4965902;28;20026;-75
2022/06/03 06:50:54;;;;;;;17.63;4.63;;;;;;;;;;4956707;28;20101;-75
2022/06/03 06:53:39;;;;;;;22.58;5.20;;;;;;;;;;4970510;28;20035;-75
2022/06/03 06:56:27;;;;;;;14.23;4.50;;;;;;;;;;4951441;28;20041;-75
2022/06/03 06:59:07;;;;;;;14.95;4.28;;;;;;;;;;4968834;28;20045;-76
2022/06/03 07:01:36;;;;;;;15.95;4.63;;;;;;;;;;4948817;28;20958;-75
2022/06/03 07:04:04;;;;;;;13.95;4.28;;;;;;;;;;4953709;28;20034;-76
2022/06/03 07:06:44;;;;;;;14.32;3.97;;;;;;;;;;4962942;28;20358;-75
2022/06/03 07:09:27;;;;;;;21.17;5.40;;;;;;;;;;4952004;28;20338;-74
2022/06/03 07:12:13;;;;;;;14.05;4.53;;;;;;;;;;4967480;28;20022;-77
2022/06/03 07:14:51;;;;;;;19.70;4.50;;;;;;;;;;4949400;28;20466;-75
2022/06/03 07:20:23;;;;;;;13.13;4.03;;;;;;;;;;4969061;28;20592;-76
2022/06/03 07:22:51;;;;;;;17.30;4.25;;;;;;;;;;4969315;28;20805;-76
2022/06/03 07:25:21;;;;;;;17.58;4.50;;;;;;;;;;4950385;28;20030;-75
2022/06/03 07:27:47;;;;;;;14.38;4.18;;;;;;;;;;4965176;28;20081;-76
2022/06/03 07:30:19;;;;;;;15.13;4.32;;;;;;;;;;4970333;28;20062;-75
2022/06/03 07:32:52;;;;;;;17.23;5.40;;;;;;;;;;4960290;28;20056;-74
2022/06/03 07:35:22;;;;;;;16.88;5.00;;;;;;;;;;4966038;28;20034;-75
2022/06/03 07:37:58;;;;;;;21.17;6.30;;;;;;;;;;4963478;28;20039;-74
2022/06/03 07:40:39;;;;;;;19.30;5.72;;;;;;;;;;4963261;28;20436;-74
2022/06/03 07:43:11;;;;;;;19.60;4.95;;;;;;;;;;4964360;28;20077;-74
2022/06/03 07:45:47;;;;;;;25.20;5.35;;;;;;;;;;4947681;28;20030;-75
2022/06/03 07:48:17;;;;;;;21.10;4.85;;;;;;;;;;4967826;28;20023;-75
2022/06/03 07:50:46;;;;;;;23.50;5.55;;;;;;;;;;4942149;28;20049;-75
2022/06/03 07:53:32;;;;;;;21.00;5.00;;;;;;;;;;4967431;28;20031;-75
2022/06/03 07:56:03;;;;;;;20.42;5.18;;;;;;;;;;4967601;28;20026;-72
2022/06/03 07:58:32;;;;;;;18.55;4.55;;;;;;;;;;4968806;28;20069;-75
2022/06/03 08:01:00;;;;;;;15.80;4.63;;;;;;;;;;4954289;28;20038;-75
2022/06/03 08:03:35;;;;;;;16.17;4.28;;;;;;;;;;4963396;28;20236;-71
2022/06/03 08:06:03;;;;;;;16.70;4.40;;;;;;;;;;4950741;28;20034;-71
2022/06/03 08:11:24;;;;;;;21.25;5.53;;;;;;;;;;4965784;28;20387;-72
2022/06/03 08:13:58;;;;;;;19.08;5.00;;;;;;;;;;4965895;28;20038;-74
2022/06/03 08:16:35;;;;;;;19.80;4.43;;;;;;;;;;4966303;28;20026;-72
2022/06/03 08:19:17;;;;;;;24.60;4.88;;;;;;;;;;4968534;28;20232;-76
2022/06/03 08:21:48;;;;;;;20.23;4.47;;;;;;;;;;4965199;28;21538;-70
2022/06/03 08:24:17;;;;;;;22.17;4.53;;;;;;;;;;4949964;28;20558;-70
2022/06/03 08:26:47;;;;;;;21.70;4.63;;;;;;;;;;4946353;28;21334;-69
2022/06/03 08:29:43;;;;;;;23.20;4.75;;;;;;;;;;4949533;28;20030;-69
2022/06/03 08:32:21;;;;;;;14.40;3.95;;;;;;;;;;4926198;28;20082;-69
2022/06/03 08:34:52;;;;;;;17.58;4.43;;;;;;;;;;4923653;28;20309;-72
2022/06/03 08:37:27;;;;;;;21.30;4.10;;;;;;;;;;4925244;28;20039;-70
2022/06/03 08:39:58;;;;;;;17.42;4.30;;;;;;;;;;4909166;29;20035;-70
2022/06/03 08:42:34;;;;;;;18.52;4.05;;;;;;;;;;4923523;28;20043;-69
2022/06/03 08:45:08;;;;;;;16.85;3.85;;;;;;;;;;4928119;28;20455;-71
2022/06/03 08:47:54;;;;;;;19.50;3.95;;;;;;;;;;4922494;28;20102;-71
2022/06/03 08:50:32;;;;;;;18.10;4.55;;;;;;;;;;4924651;28;20044;-70
2022/06/03 08:53:04;;;;;;;16.55;3.80;;;;;;;;;;4925527;28;20479;-70
2022/06/03 08:55:49;;;;;;;18.83;4.85;;;;;;;;;;4904448;28;20521;-70
2022/06/03 08:58:21;;;;;;;19.33;4.60;;;;;;;;;;4925660;28;20078;-71
2022/06/03 09:01:24;;;;;;;18.40;4.20;;;;;;;;;;4906099;29;20038;-71
2022/06/03 09:04:08;;;;;;;22.77;4.40;;;;;;;;;;4907733;28;20037;-70
2022/06/03 09:06:35;;;;;;;15.93;3.88;;;;;;;;;;4906355;28;20118;-70
2022/06/03 09:09:05;;;;;;;20.00;4.20;;;;;;;;;;4942703;28;20050;-71
2022/06/03 09:11:31;;;;;;;20.67;4.28;;;;;;;;;;4929613;28;20053;-71
2022/06/03 09:14:03;;;;;;;18.92;4.30;;;;;;;;;;4981345;28;20408;-71
2022/06/03 09:16:29;;;;;;;17.38;4.18;;;;;;;;;;4935984;28;20054;-73
2022/06/03 09:18:58;;;;;;;21.05;4.30;;;;;;;;;;4948417;28;20047;-72
2022/06/03 09:21:27;;;;;;;21.80;3.95;;;;;;;;;;4949180;28;20027;-72
2022/06/03 09:23:56;;;;;;;20.40;4.50;;;;;;;;;;4926675;28;20039;-72
2022/06/03 09:26:27;;;;;;;20.08;4.53;;;;;;;;;;4941222;28;20564;-72
2022/06/03 09:28:54;;;;;;;19.63;4.55;;;;;;;;;;4955858;28;20038;-72
2022/06/03 09:31:21;;;;;;;19.55;4.55;;;;;;;;;;4946251;28;20042;-72
2022/06/03 09:33:48;;;;;;;21.95;5.07;;;;;;;;;;4950268;28;20472;-74
2022/06/03 09:36:18;;;;;;;14.98;4.32;;;;;;;;;;4950385;28;20087;-72
2022/06/03 09:38:50;;;;;;;21.15;4.22;;;;;;;;;;4944733;28;21514;-72
2022/06/03 09:41:17;;;;;;;18.02;4.05;;;;;;;;;;4963512;28;20023;-73
2022/06/03 09:43:45;;;;;;;15.13;4.15;;;;;;;;;;4953845;28;20136;-73
2022/06/03 09:46:13;;;;;;;20.45;4.40;;;;;;;;;;4959968;28;20029;-73
2022/06/03 09:48:41;;;;;;;21.05;4.40;;;;;;;;;;4962234;28;20388;-72
2022/06/03 09:51:14;;;;;;;19.20;5.10;;;;;;;;;;4950823;28;20064;-72
2022/06/03 09:53:43;;;;;;;24.13;4.07;;;;;;;;;;4969597;28;20039;-72
2022/06/03 09:56:32;;;;;;;19.10;4.15;;;;;;;;;;4949222;28;20611;-73
2022/06/03 09:59:01;;;;;;;21.13;4.55;;;;;;;;;;4946226;28;20027;-73
2022/06/03 10:01:29;;;;;;;16.40;3.80;;;;;;;;;;4955442;28;20031;-73
2022/06/03 10:03:58;;;;;;;19.77;4.97;;;;;;;;;;4963920;28;20073;-73
2022/06/03 10:06:43;;;;;;;22.30;4.88;;;;;;;;;;4954579;28;20031;-72
2022/06/03 10:14:43;;;;;;;18.98;3.22;;;;;;;;;;4956961;28;20042;-74
2022/06/03 10:17:11;;;;;;;17.42;3.90;;;;;;;;;;4938017;28;20038;-72
2022/06/03 10:19:38;;;;;;;18.50;3.70;;;;;;;;;;4951707;28;20578;-75
2022/06/03 10:22:10;;;;;;;16.85;3.92;;;;;;;;;;4944516;28;20307;-72
2022/06/03 10:24:38;;;;;;;14.57;3.42;;;;;;;;;;4951857;28;20044;-72
2022/06/03 10:27:06;;;;;;;14.43;3.33;;;;;;;;;;4968884;28;20037;-72
2022/06/03 10:29:45;;;;;;;21.05;4.03;;;;;;;;;;4939970;28;20392;-74
2022/06/03 10:32:14;;;;;;;19.50;3.58;;;;;;;;;;4943048;28;20158;-72
2022/06/03 10:34:44;;;;;;;13.30;3.15;;;;;;;;;;4964092;28;20583;-72
2022/06/03 10:37:29;;;;;;;13.73;3.20;;;;;;;;;;4960860;28;20432;-73
2022/06/03 10:39:59;;;;;;;13.30;3.47;;;;;;;;;;4969991;28;20034;-73
2022/06/03 10:42:28;;;;;;;20.60;3.97;;;;;;;;;;4953578;28;20076;-73
2022/06/03 10:44:59;;;;;;;15.73;3.55;;;;;;;;;;4973637;28;20293;-73
2022/06/03 10:47:39;;;;;;;14.05;4.10;;;;;;;;;;4962112;28;20030;-72
2022/06/03 10:50:12;;;;;;;12.75;3.50;;;;;;;;;;4949523;28;20061;-74
2022/06/03 11:01:21;;;;;;;11.65;3.40;;;;;;;;;;4971801;28;20100;-69
2022/06/03 11:03:49;;;;;;;14.45;3.05;;;;;;;;;;4974485;28;20499;-71
2022/06/03 11:06:17;;;;;;;16.05;3.38;;;;;;;;;;4953015;28;20030;-69
2022/06/03 11:08:53;;;;;;;18.52;3.38;;;;;;;;;;4942441;28;20748;-69
2022/06/03 11:11:33;;;;;;;17.20;3.03;;;;;;;;;;4969882;28;20029;-70
2022/06/03 11:14:19;;;;;;;11.25;2.97;;;;;;;;;;4968442;28;20033;-70
2022/06/03 11:16:50;;;;;;;15.03;3.00;;;;;;;;;;4969253;28;20034;-71
2022/06/03 11:19:17;;;;;;;18.13;3.30;;;;;;;;;;4967658;28;20606;-71
2022/06/03 11:21:44;;;;;;;16.00;2.70;;;;;;;;;;4945231;28;21829;-69
2022/06/03 11:24:10;;;;;;;13.98;3.28;;;;;;;;;;4950254;28;20352;-69
2022/06/03 11:26:38;;;;;;;17.55;3.03;;;;;;;;;;4954288;28;20129;-71
2022/06/03 11:29:10;;;;;;;16.92;3.55;;;;;;;;;;4942510;28;20517;-71
2022/06/03 11:31:47;;;;;;;15.50;3.17;;;;;;;;;;4927242;28;20451;-71
2022/06/03 11:34:31;;;;;;;14.45;2.83;;;;;;;;;;4930355;28;20108;-69
2022/06/03 11:36:58;;;;;;;16.13;3.05;;;;;;;;;;4931635;28;20492;-70
2022/06/03 11:39:37;;;;;;;15.80;3.20;;;;;;;;;;4920967;28;20062;-69
2022/06/03 11:42:12;;;;;;;12.50;2.88;;;;;;;;;;4931748;28;20027;-70
2022/06/03 11:44:42;;;;;;;21.00;3.30;;;;;;;;;;4946026;28;20073;-70
2022/06/03 11:47:13;;;;;;;11.32;2.70;;;;;;;;;;4925561;28;20039;-70
2022/06/03 11:49:39;;;;;;;17.17;3.20;;;;;;;;;;4943741;28;20085;-69
2022/06/03 11:52:05;;;;;;;19.15;3.33;;;;;;;;;;4930347;28;20090;-69
2022/06/03 11:54:34;;;;;;;17.13;3.05;;;;;;;;;;4923104;28;20752;-69
2022/06/03 11:57:02;;;;;;;18.10;3.10;;;;;;;;;;4924861;28;20683;-71
2022/06/03 11:59:48;;;;;;;16.75;2.90;;;;;;;;;;4942510;28;20073;-71
2022/06/03 12:02:33;;;;;;;11.63;2.67;;;;;;;;;;4947505;28;20110;-70
2022/06/03 12:05:08;;;;;;;14.68;2.88;;;;;;;;;;4949933;28;20030;-70
2022/06/03 12:07:41;;;;;;;14.38;3.05;;;;;;;;;;4937165;28;20528;-70
2022/06/03 12:10:25;;;;;;;19.85;3.35;;;;;;;;;;4948742;28;20033;-69
2022/06/03 12:13:19;;;;;;;12.77;2.80;;;;;;;;;;4948617;28;20034;-70
2022/06/03 12:15:57;;;;;;;12.27;2.90;;;;;;;;;;4943731;28;20047;-69
2022/06/03 12:18:37;;;;;;;14.75;2.65;;;;;;;;;;4928071;28;20572;-70
2022/06/03 12:21:22;;;;;;;12.95;2.72;;;;;;;;;;4942145;28;20027;-70
2022/06/03 12:23:53;;;;;;;11.63;2.55;;;;;;;;;;4947365;28;20134;-70
2022/06/03 12:26:31;;;;;;;12.10;2.30;;;;;;;;;;4944992;28;20038;-69
2022/06/03 12:29:22;;;;;;;13.90;2.20;;;;;;;;;;4962491;28;20058;-69
2022/06/03 12:31:50;;;;;;;10.73;2.45;;;;;;;;;;4927569;28;20113;-70
2022/06/03 12:34:24;;;;;;;13.10;2.50;;;;;;;;;;4955704;28;20030;-69
2022/06/03 12:37:02;;;;;;;12.25;3.30;;;;;;;;;;4940153;28;20035;-72
2022/06/03 12:39:33;;;;;;;16.95;2.78;;;;;;;;;;4956822;28;20031;-70
2022/06/03 12:42:18;;;;;;;13.50;2.58;;;;;;;;;;4956153;28;20028;-70
2022/06/03 12:45:13;;;;;;;12.50;2.50;;;;;;;;;;4947047;28;20235;-72
2022/06/03 12:47:39;;;;;;;11.43;2.47;;;;;;;;;;4948745;28;20066;-71
2022/06/03 12:50:08;;;;;;;13.75;3.20;;;;;;;;;;4936685;28;20369;-69
2022/06/03 12:52:39;;;;;;;12.43;2.67;;;;;;;;;;4949923;28;20734;-71
2022/06/03 12:55:09;;;;;;;15.05;2.78;;;;;;;;;;4953653;28;20065;-70
2022/06/03 12:57:54;;;;;;;16.10;2.35;;;;;;;;;;4963610;28;20045;-70
2022/06/03 13:00:49;;;;;;;11.27;2.50;;;;;;;;;;4954157;28;20176;-70
2022/06/03 13:03:18;;;;;;;13.30;2.10;;;;;;;;;;4909897;29;20039;-70
2022/06/03 13:05:48;;;;;;;12.00;2.60;;;;;;;;;;4908580;29;20646;-70
2022/06/03 13:08:29;;;;;;;14.77;2.47;;;;;;;;;;4912522;29;20302;-70
2022/06/03 13:11:00;;;;;;;11.93;2.58;;;;;;;;;;4893948;29;20102;-71
2022/06/03 13:13:30;;;;;;;15.60;2.33;;;;;;;;;;4907811;28;20046;-71
2022/06/03 13:16:14;;;;;;;13.60;2.42;;;;;;;;;;4895064;29;20035;-71
2022/06/03 13:18:47;;;;;;;19.42;2.80;;;;;;;;;;4907326;29;20072;-71
2022/06/03 13:21:25;;;;;;;13.73;2.53;;;;;;;;;;4910884;29;20043;-70
2022/06/03 13:23:51;;;;;;;14.00;2.60;;;;;;;;;;4907515;28;20131;-70
2022/06/03 13:26:23;;;;;;;15.00;3.67;;;;;;;;;;4896793;29;20549;-70
2022/06/03 13:28:49;;;;;;;15.40;2.80;;;;;;;;;;4909500;29;20035;-70
2022/06/03 13:31:23;;;;;;;14.50;2.60;;;;;;;;;;4915936;28;20055;-70
2022/06/03 13:34:08;;;;;;;13.60;2.70;;;;;;;;;;4927917;28;20469;-70
2022/06/03 13:36:38;;;;;;;14.23;2.45;;;;;;;;;;4941354;28;20116;-70
2022/06/03 13:39:13;;;;;;;14.23;2.80;;;;;;;;;;4931561;28;20639;-70
2022/06/03 13:44:54;;;;;;;19.58;2.95;;;;;;;;;;4963102;28;20130;-74
2022/06/03 13:47:20;;;;;;;18.83;3.00;;;;;;;;;;4938843;28;20053;-75
2022/06/03 13:49:50;;;;;;;15.48;2.78;;;;;;;;;;4947101;28;20306;-75
2022/06/03 13:52:21;;;;;;;17.17;2.97;;;;;;;;;;4932955;28;20050;-74
2022/06/03 13:54:50;;;;;;;14.00;2.97;;;;;;;;;;4961897;28;20075;-75
2022/06/03 13:57:35;;;;;;;15.90;2.85;;;;;;;;;;4932317;28;20070;-74
2022/06/03 14:00:09;;;;;;;17.70;2.70;;;;;;;;;;4935321;28;20023;-77
2022/06/03 14:02:38;;;;;;;22.10;3.17;;;;;;;;;;4946221;28;20145;-74
2022/06/03 14:05:07;;;;;;;11.98;2.50;;;;;;;;;;4952840;28;20038;-75
2022/06/03 14:07:39;;;;;;;13.98;2.38;;;;;;;;;;4949517;28;20534;-74
2022/06/03 14:10:26;;;;;;;15.90;2.92;;;;;;;;;;4940180;28;20034;-69
2022/06/03 14:13:03;;;;;;;13.77;2.65;;;;;;;;;;4942354;28;20376;-70
2022/06/03 14:15:50;;;;;;;20.67;3.00;;;;;;;;;;4931936;28;20371;-70
2022/06/03 14:18:36;;;;;;;15.23;2.58;;;;;;;;;;4931077;28;20042;-69
2022/06/03 14:21:02;;;;;;;;;;;;;;;;;;4935782;28;20026;-69
2022/06/03 14:23:36;;;;;;;16.00;2.50;;;;;;;;;;4966181;28;19987;-71
2022/06/03 14:26:14;;;;;;;18.95;2.80;;;;;;;;;;4949103;28;20264;-71
2022/06/03 14:29:00;;;;;;;12.10;2.33;;;;;;;;;;4960682;28;20257;-71
2022/06/03 14:31:26;;;;;;;13.82;2.40;;;;;;;;;;4964929;28;20328;-71
2022/06/03 14:33:56;;;;;;;12.85;2.47;;;;;;;;;;4954143;28;20045;-71
2022/06/03 14:36:25;;;;;;;14.00;2.33;;;;;;;;;;4963866;28;20070;-71
2022/06/03 14:39:00;;;;;;;18.95;2.60;;;;;;;;;;4959324;28;20168;-71
2022/06/03 14:41:30;;;;;;;17.02;2.95;;;;;;;;;;4944852;28;20389;-70
2022/06/03 14:43:59;;;;;;;10.93;2.22;;;;;;;;;;4940756;28;20029;-71
2022/06/03 14:46:34;;;;;;;13.07;2.53;;;;;;;;;;4947223;28;20034;-71
2022/06/03 14:49:04;;;;;;;14.73;2.60;;;;;;;;;;4966128;28;20397;-70
2022/06/03 14:51:36;;;;;;;11.50;2.72;;;;;;;;;;4973468;28;20278;-71
2022/06/03 14:54:08;;;;;;;11.48;2.47;;;;;;;;;;4954048;28;20561;-71
2022/06/03 14:56:37;;;;;;;14.05;2.65;;;;;;;;;;4964258;28;20429;-70
2022/06/03 14:59:09;;;;;;;12.43;2.53;;;;;;;;;;4958552;28;20037;-72
2022/06/03 15:01:41;;;;;;;13.32;2.67;;;;;;;;;;4967067;28;20109;-71
2022/06/03 15:04:15;;;;;;;12.45;2.35;;;;;;;;;;4946934;28;20039;-70
2022/06/03 15:06:44;;;;;;;10.30;2.22;;;;;;;;;;4958312;28;20041;-71
2022/06/03 15:09:14;;;;;;;13.55;2.42;;;;;;;;;;4952744;28;20480;-71
2022/06/03 15:11:43;;;;;;;15.27;2.40;;;;;;;;;;4963475;28;20041;-71
2022/06/03 15:14:14;;;;;;;11.65;2.28;;;;;;;;;;4973753;28;20038;-75
2022/06/03 15:16:51;;;;;;;14.95;2.67;;;;;;;;;;4945042;28;20069;-75
2022/06/03 15:19:32;;;;;;;13.65;2.40;;;;;;;;;;4951664;28;20446;-75
2022/06/03 15:21:58;;;;;;;13.35;2.40;;;;;;;;;;4949041;28;20113;-75
2022/06/03 15:24:25;;;;;;;14.00;2.40;;;;;;;;;;4965180;28;20345;-75
2022/06/03 15:26:52;;;;;;;9.85;2.58;;;;;;;;;;4958672;28;20469;-75
2022/06/03 15:29:23;;;;;;;16.33;2.80;;;;;;;;;;4969473;28;20464;-74
2022/06/03 15:31:51;;;;;;;11.60;2.70;;;;;;;;;;4959595;28;20195;-74
2022/06/03 15:34:20;;;;;;;12.65;2.97;;;;;;;;;;4947577;28;20229;-74
2022/06/03 15:36:50;;;;;;;13.98;2.40;;;;;;;;;;4963850;28;20030;-74
2022/06/03 15:39:16;;;;;;;16.55;2.78;;;;;;;;;;4965107;28;20035;-75
2022/06/03 15:41:44;;;;;;;18.00;2.95;;;;;;;;;;4964560;28;20038;-75
2022/06/03 15:44:10;;;;;;;14.38;2.80;;;;;;;;;;4970172;28;20340;-74
2022/06/03 15:46:41;;;;;;;15.40;3.33;;;;;;;;;;4961509;28;20030;-76
2022/06/03 15:49:09;;;;;;;13.02;2.55;;;;;;;;;;4969247;28;20061;-76
2022/06/03 15:51:42;;;;;;;13.60;2.70;;;;;;;;;;4963845;28;20035;-77